CST,Max TemperatureF,Mean TemperatureF,Min TemperatureF,Max Dew PointF,MeanDew PointF,Min DewpointF,Max Humidity, Mean Humidity, Min Humidity, Max Sea Level PressureIn, Mean Sea Level PressureIn, Min Sea Level PressureIn, Max VisibilityMiles, Mean VisibilityMiles, Min VisibilityMiles, Max Wind SpeedMPH, Mean Wind SpeedMPH, Max Gust SpeedMPH,PrecipitationIn, CloudCover, Events, WindDirDegrees
2012-12-1,59,47,35,48,43,32,94,83,63,29.96,29.86,29.77,10,6,0,15,7,,0.00,4,,279
2012-12-2,68,50,33,41,36,28,87,64,32,30.04,29.91,29.69,10,10,10,22,8,26,0.00,0,,186
2012-12-3,62,50,37,45,35,27,76,54,39,30.14,29.85,29.60,10,10,10,29,16,33,0.00,0,,331
2012-12-4,60,42,24,27,20,16,80,51,20,30.36,30.28,30.15,10,10,10,15,7,,0.00,0,,272
2012-12-5,62,46,30,25,21,18,64,39,20,30.29,30.09,29.87,10,10,10,29,14,34,0.00,0,,181
2012-12-6,55,44,32,37,26,19,75,55,35,29.97,29.88,29.82,10,10,8,23,11,28,0.00,0,,46
2012-12-7,46,34,23,34,25,18,86,62,53,29.99,29.92,29.84,10,10,10,10,6,,0.00,3,,1
2012-12-8,46,32,17,37,25,12,93,74,53,29.99,29.89,29.77,10,9,4,14,6,,0.00,3,,192
2012-12-9,39,27,15,36,13,-2,87,52,37,30.22,30.05,29.86,10,9,3,30,15,38,0.00,5,,329
2012-12-10,39,21,3,7,1,-4,72,45,21,30.22,30.05,29.92,10,10,10,21,12,24,0.00,0,,257
2012-12-11,44,30,15,19,11,0,73,49,27,30.11,30.04,29.96,10,10,10,10,7,,0.00,0,,254
2012-12-12,55,40,24,18,14,9,55,37,21,30.04,29.98,29.92,10,10,10,29,16,37,0.01,0,,189
2012-12-13,57,40,23,25,18,12,69,45,25,30.03,29.98,29.95,10,10,9,20,11,22,0.00,0,,175
2012-12-14,55,44,33,46,36,23,93,73,52,29.97,29.76,29.38,10,9,3,29,14,36,0.10,3,,174
2012-12-15,55,42,28,43,36,25,93,74,51,29.72,29.62,29.37,10,10,10,22,13,26,0.00,2,,278
2012-12-16,44,35,26,34,28,23,93,81,57,29.82,29.75,29.69,10,7,0,14,6,,0.00,5,,353
2012-12-17,53,40,26,30,27,21,93,67,38,29.82,29.72,29.59,10,9,0,21,8,26,0.00,1,,243
2012-12-18,57,42,28,27,20,16,75,50,20,29.80,29.73,29.60,10,10,10,16,8,20,0.00,0,,293
2012-12-19,46,37,28,34,27,19,86,62,45,29.81,29.63,29.47,10,8,1,37,14,44,0.00,5,,78
2012-12-20,33,26,19,23,15,9,80,63,47,30.27,30.17,29.83,10,9,1,32,21,43,0.00,1,,297
2012-12-21,46,29,12,28,18,7,86,68,43,30.28,30.21,30.11,10,10,10,8,3,,0.00,0,,167
2012-12-22,44,30,17,28,21,9,86,67,49,30.10,29.98,29.92,10,10,10,13,4,,0.00,0,,290
2012-12-23,28,22,17,21,17,12,86,78,69,30.02,29.96,29.90,10,8,3,13,8,,0.00,1,,352
2012-12-24,26,20,15,16,11,9,86,70,54,30.08,30.03,29.99,10,10,7,18,9,23,0.00,0,,29
2012-12-25,17,12,8,10,6,1,79,68,49,30.30,30.21,30.06,10,10,2,30,19,34,0.00,6,,15
2012-12-26,26,14,3,9,5,-2,85,65,46,30.30,30.15,29.98,10,10,10,15,8,,0.00,0,,63
2012-12-27,24,20,15,18,14,7,80,70,58,29.97,29.88,29.82,10,10,9,21,12,26,0.00,5,,137
2012-12-28,26,17,8,16,7,1,79,66,46,30.15,30.04,29.97,10,10,10,20,11,25,0.00,2,,320
2012-12-29,44,26,8,19,11,1,85,62,31,30.30,30.23,30.15,10,10,10,15,7,18,0.00,0,,269
2012-12-30,48,34,19,19,16,10,74,47,25,30.22,30.09,30.02,10,10,10,28,14,36,0.00,0,,195
2012-12-31,33,26,19,25,20,14,93,79,56,30.16,30.05,29.99,10,4,0,18,8,21,0.00,8,,27